Time;durP1;ratioP1;P1;durP2;ratioP2;P2;SDS_P1;SDS_P2;PMS_P1;PMS_P2;Temp;Humidity;BMP_temperature;BMP_pressure;BME280_temperature;BME280_humidity;BME280_pressure;Samples;Min_cycle;Max_cycle;Signal;HPM_P1;HPM_P2
2023/09/02 00:09:51;;;;;;;63.10;30.33;;;16.80;99.90;;;;;;20710409;28;20156;-43
2023/09/02 00:19:52;;;;;;;57.90;28.65;;;16.70;99.90;;;;;;20708874;28;20600;-43
2023/09/02 00:29:53;;;;;;;57.00;28.20;;;16.70;99.90;;;;;;20702478;28;20576;-43
2023/09/02 00:39:53;;;;;;;60.08;29.52;;;16.60;99.90;;;;;;20709125;28;20048;-43
2023/09/02 00:49:54;;;;;;;59.20;30.25;;;16.50;99.90;;;;;;20710446;28;20041;-43
2023/09/02 00:59:55;;;;;;;52.85;26.25;;;16.40;99.90;;;;;;20705832;28;20115;-43
2023/09/02 01:09:56;;;;;;;55.55;27.30;;;16.30;99.90;;;;;;20708428;28;20134;-43
2023/09/02 01:19:58;;;;;;;55.13;27.80;;;16.10;99.90;;;;;;20700053;28;20068;-43
2023/09/02 01:30:14;;;;;;;45.70;23.45;;;16.00;99.90;;;;;;20713285;28;20046;-43
2023/09/02 01:40:25;;;;;;;54.85;26.95;;;15.80;99.90;;;;;;20703290;28;20526;-43
2023/09/02 01:50:29;;;;;;;50.90;25.25;;;15.70;99.90;;;;;;20704458;28;20046;-43
2023/09/02 02:00:30;;;;;;;50.65;24.08;;;15.70;99.90;;;;;;20718952;28;20212;-43
2023/09/02 02:10:33;;;;;;;59.90;28.02;;;15.50;99.90;;;;;;20697329;28;20041;-43
2023/09/02 02:20:47;;;;;;;53.55;25.30;;;15.50;99.90;;;;;;20707427;28;20069;-43
2023/09/02 02:30:47;;;;;;;55.53;26.95;;;15.60;99.90;;;;;;20711581;28;20034;-44
2023/09/02 02:40:48;;;;;;;48.83;23.85;;;15.70;99.90;;;;;;20712318;28;20575;-43
2023/09/02 02:50:48;;;;;;;61.17;29.45;;;15.80;99.90;;;;;;20726208;28;20045;-43
2023/09/02 03:00:50;;;;;;;58.85;27.73;;;15.80;99.90;;;;;;20718547;28;20177;-43
2023/09/02 03:11:01;;;;;;;66.55;30.13;;;15.90;99.90;;;;;;20711753;28;20777;-43
2023/09/02 03:21:03;;;;;;;51.40;25.63;;;16.00;99.90;;;;;;20712677;28;20405;-43
2023/09/02 03:31:08;;;;;;;74.60;31.80;;;16.00;99.90;;;;;;20718703;28;20034;-43
2023/09/02 03:41:12;;;;;;;66.07;30.25;;;16.10;99.90;;;;;;20723136;28;20037;-43
2023/09/02 03:51:15;;;;;;;62.13;29.38;;;16.10;99.90;;;;;;20718922;28;20052;-43
2023/09/02 04:01:17;;;;;;;52.72;27.38;;;16.10;99.90;;;;;;20710358;28;20038;-43
2023/09/02 04:11:17;;;;;;;50.03;24.90;;;16.20;99.90;;;;;;20709388;28;20429;-43
2023/09/02 04:21:18;;;;;;;48.77;24.33;;;16.10;99.90;;;;;;20712060;28;20041;-43
2023/09/02 04:31:18;;;;;;;42.50;22.38;;;16.20;99.90;;;;;;20709287;28;20472;-43
2023/09/02 04:41:19;;;;;;;34.30;19.80;;;16.10;99.90;;;;;;20708760;28;21334;-43
2023/09/02 04:51:19;;;;;;;46.20;23.13;;;16.10;99.90;;;;;;20701651;28;20038;-43
2023/09/02 05:01:20;;;;;;;37.88;19.88;;;16.10;99.90;;;;;;20728873;28;20099;-43
2023/09/02 05:11:21;;;;;;;37.90;20.55;;;16.10;99.90;;;;;;20709901;28;20042;-43
2023/09/02 05:21:22;;;;;;;38.05;21.20;;;16.00;99.90;;;;;;20723333;28;20041;-44
2023/09/02 05:31:22;;;;;;;37.17;19.73;;;16.00;99.90;;;;;;20709692;28;20170;-43
2023/09/02 05:41:24;;;;;;;37.30;19.50;;;16.00;99.90;;;;;;20742262;28;20048;-43
2023/09/02 05:51:25;;;;;;;33.47;18.25;;;16.00;99.90;;;;;;20710666;28;20042;-43
2023/09/02 06:01:25;;;;;;;32.58;18.15;;;16.00;99.90;;;;;;20728799;28;20069;-43
2023/09/02 06:11:26;;;;;;;35.97;18.60;;;16.00;99.90;;;;;;20730196;28;20073;-43
2023/09/02 06:21:26;;;;;;;37.30;19.13;;;16.10;99.90;;;;;;20722088;28;20307;-43
2023/09/02 06:31:27;;;;;;;41.33;19.63;;;16.00;99.90;;;;;;20722669;28;20041;-43
2023/09/02 06:41:27;;;;;;;42.60;19.23;;;16.00;99.90;;;;;;20724938;28;20042;-43
2023/09/02 06:51:28;;;;;;;39.67;19.52;;;16.10;99.90;;;;;;20728073;28;20037;-43
2023/09/02 07:01:28;;;;;;;43.63;19.73;;;16.20;99.90;;;;;;20744925;28;20050;-43
2023/09/02 07:11:29;;;;;;;50.20;21.77;;;16.30;99.90;;;;;;20742349;28;20428;-43
2023/09/02 07:21:30;;;;;;;59.05;24.60;;;16.40;99.90;;;;;;20749889;28;20476;-44
2023/09/02 07:31:30;;;;;;;54.95;23.25;;;16.60;99.90;;;;;;20748349;28;20458;-43
2023/09/02 07:41:31;;;;;;;53.67;23.45;;;16.80;99.90;;;;;;20748038;28;20505;-43
2023/09/02 07:51:31;;;;;;;62.65;25.30;;;16.80;99.90;;;;;;20748044;28;20045;-42
2023/09/02 08:01:32;;;;;;;48.97;21.17;;;16.80;99.90;;;;;;20746366;28;20044;-42
2023/09/02 08:11:33;;;;;;;57.05;22.70;;;16.90;99.90;;;;;;20737266;28;20597;-43
2023/09/02 08:21:33;;;;;;;58.90;24.50;;;17.10;99.90;;;;;;20718327;28;20200;-43
2023/09/02 08:31:34;;;;;;;50.58;22.83;;;17.20;99.90;;;;;;20715330;28;20038;-43
2023/09/02 08:41:36;;;;;;;62.90;25.67;;;17.20;99.90;;;;;;20712292;28;20097;-43
2023/09/02 08:51:37;;;;;;;60.53;26.40;;;17.40;99.90;;;;;;20726803;28;20042;-43
2023/09/02 09:01:42;;;;;;;48.30;21.38;;;17.50;99.90;;;;;;20719492;28;20042;-43
2023/09/02 09:11:43;;;;;;;54.25;23.92;;;17.40;99.90;;;;;;20717548;28;20850;-43
2023/09/02 09:21:44;;;;;;;51.10;22.85;;;17.50;99.90;;;;;;20717647;28;20119;-43
2023/09/02 09:31:45;;;;;;;53.95;24.55;;;17.50;99.90;;;;;;20721738;28;20041;-43
2023/09/02 09:41:49;;;;;;;53.65;23.67;;;17.60;99.90;;;;;;20744935;28;20033;-44
2023/09/02 09:52:01;;;;;;;50.25;22.27;;;17.70;99.90;;;;;;20750353;28;20512;-43
2023/09/02 10:02:05;;;;;;;59.60;27.33;;;18.00;99.90;;;;;;20737041;28;20451;-43
2023/09/02 10:12:11;;;;;;;53.70;25.63;;;18.10;99.90;;;;;;20728877;28;20042;-44
2023/09/02 10:22:19;;;;;;;44.05;22.30;;;18.40;99.90;;;;;;20738974;28;20038;-43
2023/09/02 10:32:23;;;;;;;37.20;21.42;;;18.40;99.90;;;;;;20732797;28;20126;-43
2023/09/02 10:42:24;;;;;;;38.03;21.25;;;18.60;99.90;;;;;;20731141;28;20057;-43
2023/09/02 10:52:24;;;;;;;35.80;20.98;;;18.90;99.90;;;;;;20736758;28;20045;-44
2023/09/02 11:02:38;;;;;;;33.40;21.60;;;19.00;99.90;;;;;;20735002;28;20048;-44
2023/09/02 11:12:57;;;;;;;35.22;21.60;;;19.30;94.60;;;;;;20734194;28;20542;-44
2023/09/02 11:23:04;;;;;;;33.17;20.65;;;19.30;60.50;;;;;;20733341;28;20473;-43
2023/09/02 11:33:06;;;;;;;30.20;19.93;;;19.20;58.30;;;;;;20731836;28;20034;-44
2023/09/02 11:43:07;;;;;;;30.70;19.23;;;19.30;70.60;;;;;;20733211;28;20052;-44
2023/09/02 11:53:07;;;;;;;26.88;18.17;;;19.50;50.30;;;;;;20736504;28;20030;-44
2023/09/02 12:03:08;;;;;;;24.33;17.90;;;19.70;26.50;;;;;;20729481;28;20307;-44
2023/09/02 12:13:09;;;;;;;22.55;15.82;;;20.10;14.70;;;;;;20735680;28;20227;-44
2023/09/02 12:23:10;;;;;;;20.33;14.05;;;20.10;1.00;;;;;;20737318;28;20045;-44
2023/09/02 12:33:15;;;;;;;23.20;16.23;;;20.30;1.60;;;;;;20741476;28;20049;-43
2023/09/02 12:43:23;;;;;;;24.25;16.13;;;20.10;1.00;;;;;;20728131;28;20047;-43
2023/09/02 12:53:26;;;;;;;22.67;15.50;;;20.30;2.90;;;;;;20735903;28;20079;-43
2023/09/02 13:03:27;;;;;;;18.45;13.45;;;20.40;1.00;;;;;;20741479;28;20124;-44
2023/09/02 13:13:27;;;;;;;18.27;12.43;;;20.90;1.00;;;;;;20746695;28;20091;-44
2023/09/02 13:23:31;;;;;;;17.67;13.25;;;21.20;1.00;;;;;;20751390;28;20133;-44
2023/09/02 13:33:33;;;;;;;17.63;12.45;;;22.10;1.00;;;;;;20719945;28;20510;-44
2023/09/02 13:43:34;;;;;;;15.07;12.18;;;21.70;1.00;;;;;;20747833;28;20048;-44
2023/09/02 13:53:37;;;;;;;14.25;9.63;;;21.70;1.00;;;;;;20747165;28;20033;-44
2023/09/02 14:03:37;;;;;;;11.77;9.05;;;22.00;1.00;;;;;;20741929;28;20069;-44
2023/09/02 14:13:40;;;;;;;12.30;7.97;;;21.90;1.00;;;;;;20704169;28;20592;-43
2023/09/02 14:23:40;;;;;;;11.13;8.07;;;22.00;1.00;;;;;;20714572;28;20053;-43
2023/09/02 14:33:41;;;;;;;10.52;8.07;;;22.20;1.00;;;;;;20712211;28;20037;-43
2023/09/02 14:43:44;;;;;;;7.55;6.40;;;22.10;1.00;;;;;;20721960;28;20042;-43
2023/09/02 14:53:45;;;;;;;8.18;6.15;;;22.10;1.00;;;;;;20719132;28;20092;-43
2023/09/02 15:03:45;;;;;;;10.80;7.70;;;22.00;1.00;;;;;;20721103;28;20045;-43
2023/09/02 15:13:46;;;;;;;10.50;7.37;;;21.90;1.00;;;;;;20741826;28;20034;-43
2023/09/02 15:23:47;;;;;;;7.15;6.15;;;21.80;1.00;;;;;;20747177;28;20053;-43
2023/09/02 15:33:47;;;;;;;7.72;5.72;;;21.70;1.00;;;;;;20745651;28;20045;-43
2023/09/02 15:43:52;;;;;;;5.95;4.97;;;21.40;1.00;;;;;;20745492;28;20046;-42
2023/09/02 15:53:53;;;;;;;8.23;6.25;;;21.20;1.00;;;;;;20743282;28;20574;-43
2023/09/02 16:03:53;;;;;;;8.50;6.65;;;21.20;1.00;;;;;;20738267;28;20049;-43
2023/09/02 16:13:54;;;;;;;8.63;7.17;;;21.20;1.00;;;;;;20744942;28;20100;-42
2023/09/02 16:23:56;;;;;;;11.60;8.07;;;21.10;1.00;;;;;;20743367;28;20046;-43
2023/09/02 16:33:57;;;;;;;15.02;12.13;;;20.90;1.00;;;;;;20743035;28;20378;-42
2023/09/02 16:43:57;;;;;;;14.40;10.07;;;20.60;1.00;;;;;;20741050;28;20053;-43
2023/09/02 16:54:01;;;;;;;13.98;11.13;;;20.50;1.00;;;;;;20757027;28;20551;-42
2023/09/02 17:04:01;;;;;;;11.85;9.45;;;20.30;1.00;;;;;;20757204;28;20041;-43
2023/09/02 17:14:04;;;;;;;11.27;8.85;;;20.10;1.00;;;;;;20758656;28;20034;-43
2023/09/02 17:24:05;;;;;;;7.22;6.10;;;19.90;1.00;;;;;;20755225;28;20076;-44
2023/09/02 17:34:05;;;;;;;7.68;6.20;;;19.70;1.00;;;;;;20752038;28;20034;-43
2023/09/02 17:44:06;;;;;;;10.40;6.78;;;19.70;1.00;;;;;;20755514;28;20099;-43
2023/09/02 17:54:06;;;;;;;12.13;6.57;;;19.50;1.00;;;;;;20755435;28;20060;-43
2023/09/02 18:04:07;;;;;;;7.88;4.97;;;19.40;1.00;;;;;;20736458;28;20148;-44
2023/09/02 18:14:07;;;;;;;5.55;3.85;;;19.30;1.00;;;;;;20743975;28;20079;-43
2023/09/02 18:24:09;;;;;;;3.53;2.60;;;19.20;1.00;;;;;;20746912;28;20072;-43
2023/09/02 18:34:10;;;;;;;4.63;2.20;;;19.00;1.00;;;;;;20743804;28;20132;-42
2023/09/02 18:44:11;;;;;;;4.97;2.58;;;18.80;1.00;;;;;;20750512;28;20046;-43
2023/09/02 18:54:11;;;;;;;5.65;2.90;;;18.60;1.00;;;;;;20747098;28;20034;-43
2023/09/02 19:04:12;;;;;;;3.77;2.57;;;18.40;1.00;;;;;;20712750;28;20053;-43
2023/09/02 19:14:12;;;;;;;4.50;2.70;;;18.10;1.00;;;;;;20743014;28;21061;-43
2023/09/02 19:24:13;;;;;;;4.35;2.80;;;17.90;1.00;;;;;;20737119;28;20048;-43
2023/09/02 19:34:13;;;;;;;5.38;2.80;;;17.70;2.30;;;;;;20727167;28;20391;-43
2023/09/02 19:44:15;;;;;;;3.58;2.92;;;17.50;10.70;;;;;;20721366;28;20048;-47
2023/09/02 19:54:15;;;;;;;5.28;2.92;;;17.30;20.70;;;;;;20740489;28;20029;-43
2023/09/02 20:04:16;;;;;;;6.28;3.38;;;17.30;31.30;;;;;;20742306;28;20045;-43
2023/09/02 20:14:16;;;;;;;3.73;3.10;;;17.30;23.70;;;;;;20740894;28;20048;-43
2023/09/02 20:24:23;;;;;;;4.72;3.25;;;17.10;32.40;;;;;;20736701;28;20053;-43
2023/09/02 20:34:24;;;;;;;3.70;2.97;;;17.00;33.10;;;;;;20744701;28;20049;-43
2023/09/02 20:44:25;;;;;;;4.43;3.03;;;17.00;43.70;;;;;;20733998;28;20057;-43
2023/09/02 20:54:25;;;;;;;5.88;3.05;;;16.80;58.50;;;;;;20729248;28;20120;-42
2023/09/02 21:04:26;;;;;;;3.72;2.97;;;16.80;64.00;;;;;;20738353;28;20041;-43
2023/09/02 21:14:26;;;;;;;5.30;3.47;;;16.80;79.20;;;;;;20740811;28;20041;-43
2023/09/02 21:24:27;;;;;;;5.95;4.07;;;16.70;84.10;;;;;;20715411;28;20049;-43
2023/09/02 21:34:27;;;;;;;4.22;3.58;;;16.80;88.20;;;;;;20736484;28;20120;-43
2023/09/02 21:44:28;;;;;;;4.65;3.63;;;16.60;70.40;;;;;;20755739;28;20038;-43
2023/09/02 21:54:29;;;;;;;4.85;3.90;;;16.50;78.80;;;;;;20728748;28;20030;-43
2023/09/02 22:04:30;;;;;;;5.25;4.10;;;16.20;86.80;;;;;;20691282;28;20041;-43
2023/09/02 22:14:30;;;;;;;5.97;3.83;;;16.10;88.00;;;;;;20726238;28;20112;-43
2023/09/02 22:24:31;;;;;;;5.68;4.00;;;16.20;81.60;;;;;;20710014;28;20073;-42
2023/09/02 22:34:31;;;;;;;6.00;4.07;;;16.20;76.90;;;;;;20703744;28;20042;-42
2023/09/02 22:44:32;;;;;;;5.40;4.18;;;16.20;65.80;;;;;;20726924;28;20517;-43
2023/09/02 22:54:33;;;;;;;6.63;4.63;;;16.10;49.10;;;;;;20705844;28;20034;-43
2023/09/02 23:04:33;;;;;;;6.55;5.03;;;15.80;63.60;;;;;;20700228;28;20041;-43
2023/09/02 23:14:34;;;;;;;4.72;4.22;;;15.60;84.10;;;;;;20709070;28;20046;-43
2023/09/02 23:24:34;;;;;;;6.07;5.03;;;15.40;74.20;;;;;;20694083;28;20041;-42
2023/09/02 23:34:35;;;;;;;6.38;5.35;;;15.30;78.20;;;;;;20712994;28;20050;-43
2023/09/02 23:44:36;;;;;;;8.43;6.15;;;15.20;82.20;;;;;;20693154;28;20077;-43
2023/09/02 23:54:36;;;;;;;7.10;5.45;;;15.10;91.00;;;;;;20690996;28;20161;-43
